createdAt,value
2022-09-24T00:01:15.867Z,8.10
2022-09-24T00:03:44.048Z,8.43
2022-09-24T00:06:11.151Z,7.80
2022-09-24T00:08:38.250Z,8.63
2022-09-24T00:11:06.769Z,8.87
2022-09-24T00:13:35.699Z,7.40
2022-09-24T00:16:03.745Z,9.00
2022-09-24T00:18:31.182Z,7.90
2022-09-24T00:20:58.303Z,7.50
2022-09-24T00:23:25.617Z,7.43
2022-09-24T00:25:52.748Z,8.50
2022-09-24T00:28:19.836Z,8.37
2022-09-24T00:30:48.290Z,8.97
2022-09-24T00:33:15.393Z,8.67
2022-09-24T00:35:42.515Z,8.63
2022-09-24T00:38:09.632Z,8.40
2022-09-24T00:40:38.033Z,8.53
2022-09-24T00:43:20.042Z,10.90
2022-09-24T00:45:48.653Z,9.90
2022-09-24T00:48:15.835Z,12.20
2022-09-24T00:50:43.101Z,10.10
2022-09-24T00:53:11.336Z,12.23
2022-09-24T00:55:40.308Z,12.33
2022-09-24T00:58:09.150Z,10.70
2022-09-24T01:00:37.381Z,9.90
2022-09-24T01:03:07.582Z,9.50
2022-09-24T01:05:36.017Z,9.70
2022-09-24T01:08:03.213Z,9.97
2022-09-24T01:10:36.634Z,10.67
2022-09-24T01:13:07.975Z,10.13
2022-09-24T01:15:39.216Z,10.27
2022-09-24T01:18:10.205Z,10.10
2022-09-24T01:20:45.330Z,10.97
2022-09-24T01:23:22.260Z,11.60
2022-09-24T01:25:55.586Z,10.93
2022-09-24T01:28:31.360Z,9.43
2022-09-24T01:31:01.495Z,8.00
2022-09-24T01:33:29.039Z,8.13
2022-09-24T01:35:56.977Z,8.60
2022-09-24T01:38:26.700Z,8.97
2022-09-24T01:40:55.077Z,8.40
2022-09-24T01:43:23.164Z,8.97
2022-09-24T01:45:50.372Z,9.07
2022-09-24T01:48:18.913Z,8.97
2022-09-24T01:50:49.386Z,8.50
2022-09-24T01:53:17.723Z,8.50
2022-09-24T01:55:47.229Z,9.17
2022-09-24T01:58:16.677Z,8.97
2022-09-24T02:00:45.757Z,9.47
2022-09-24T02:03:15.109Z,9.57
2022-09-24T02:05:47.684Z,9.80
2022-09-24T02:08:17.562Z,9.63
2022-09-24T02:10:46.974Z,8.67
2022-09-24T02:13:15.313Z,8.50
2022-09-24T02:15:43.177Z,8.70
2022-09-24T02:18:12.375Z,8.03
2022-09-24T02:20:40.490Z,8.10
2022-09-24T02:23:10.551Z,8.10
2022-09-24T02:25:39.633Z,6.30
2022-09-24T02:28:06.721Z,8.07
2022-09-24T02:30:38.119Z,8.20
2022-09-24T02:33:06.972Z,8.40
2022-09-24T02:35:34.068Z,8.70
2022-09-24T02:38:06.017Z,8.53
2022-09-24T02:40:34.761Z,8.47
2022-09-24T02:43:01.922Z,8.60
2022-09-24T02:45:28.986Z,7.40
2022-09-24T02:47:56.078Z,7.53
2022-09-24T02:50:23.170Z,8.30
2022-09-24T02:52:50.274Z,7.40
2022-09-24T02:55:17.409Z,7.70
2022-09-24T02:57:45.836Z,8.33
2022-09-24T03:00:13.569Z,7.60
2022-09-24T03:02:40.821Z,7.43
2022-09-24T03:05:08.363Z,7.70
2022-09-24T03:07:35.479Z,7.73
2022-09-24T03:10:02.570Z,8.07
2022-09-24T03:12:29.673Z,7.57
2022-09-24T03:14:58.077Z,8.13
2022-09-24T03:17:25.186Z,8.80
2022-09-24T03:19:52.249Z,7.00
2022-09-24T03:22:19.357Z,7.57
2022-09-24T03:24:46.467Z,8.80
2022-09-24T03:27:13.609Z,7.40
2022-09-24T03:29:40.689Z,7.93
2022-09-24T03:32:09.137Z,7.17
2022-09-24T03:34:36.234Z,7.97
2022-09-24T03:37:03.366Z,7.37
2022-09-24T03:39:30.433Z,7.70
2022-09-24T03:41:57.528Z,9.47
2022-09-24T03:44:24.611Z,8.90
2022-09-24T03:46:51.751Z,8.67
2022-09-24T03:49:20.234Z,7.30
2022-09-24T03:51:47.325Z,8.53
2022-09-24T03:54:14.440Z,8.27
2022-09-24T03:56:41.525Z,8.30
2022-09-24T03:59:09.742Z,8.77
2022-09-24T04:01:36.907Z,8.33
2022-09-24T04:04:04.511Z,7.83
2022-09-24T04:06:32.955Z,8.33
2022-09-24T04:09:00.043Z,7.87
2022-09-24T04:11:27.400Z,8.40
2022-09-24T04:13:54.494Z,7.97
2022-09-24T04:16:21.751Z,8.67
2022-09-24T04:18:48.948Z,7.63
2022-09-24T04:21:16.066Z,8.17
2022-09-24T04:23:44.594Z,7.77
2022-09-24T04:26:11.726Z,8.50
2022-09-24T04:28:38.821Z,9.10
2022-09-24T04:31:05.951Z,7.83
2022-09-24T04:33:33.080Z,8.50
2022-09-24T04:36:00.146Z,8.00
2022-09-24T04:38:27.266Z,8.37
2022-09-24T04:40:55.759Z,8.70
2022-09-24T04:43:22.870Z,7.53
2022-09-24T04:45:49.979Z,9.17
2022-09-24T04:48:17.083Z,7.90
2022-09-24T04:50:46.306Z,9.20
2022-09-24T04:53:13.731Z,7.93
2022-09-24T04:55:40.943Z,8.90
2022-09-24T04:58:09.398Z,9.23
2022-09-24T05:00:36.531Z,9.50
2022-09-24T05:03:04.151Z,9.97
2022-09-24T05:05:31.388Z,9.17
2022-09-24T05:07:58.539Z,9.73
2022-09-24T05:10:25.754Z,8.53
2022-09-24T05:12:52.838Z,10.00
2022-09-24T05:15:21.343Z,9.70
2022-09-24T05:17:48.439Z,8.80
2022-09-24T05:20:16.203Z,9.90
2022-09-24T05:22:43.729Z,8.83
2022-09-24T05:25:11.120Z,9.67
2022-09-24T05:27:38.489Z,8.90
2022-09-24T05:30:05.856Z,9.13
2022-09-24T05:32:34.283Z,8.10
2022-09-24T05:35:01.355Z,9.60
2022-09-24T05:37:28.685Z,9.00
2022-09-24T05:39:55.783Z,9.10
2022-09-24T05:42:22.871Z,9.43
2022-09-24T05:44:52.301Z,10.10
2022-09-24T05:47:19.632Z,8.70
2022-09-24T05:49:48.059Z,8.37
2022-09-24T05:52:15.142Z,8.00
2022-09-24T05:54:42.210Z,8.30
2022-09-24T05:57:09.305Z,7.93
2022-09-24T05:59:36.398Z,6.80
2022-09-24T06:02:03.579Z,8.80
2022-09-24T06:04:30.725Z,9.60
2022-09-24T06:06:59.155Z,9.07
2022-09-24T06:09:26.249Z,8.90
2022-09-24T06:11:53.326Z,7.73
2022-09-24T06:14:20.438Z,7.97
2022-09-24T06:16:47.566Z,8.37
2022-09-24T06:19:14.673Z,8.87
2022-09-24T06:21:41.745Z,10.83
2022-09-24T06:24:10.379Z,8.90
2022-09-24T06:26:37.613Z,8.63
2022-09-24T06:29:05.443Z,9.40
2022-09-24T06:31:32.918Z,9.40
2022-09-24T06:34:00.085Z,8.10
2022-09-24T06:36:27.218Z,8.10
2022-09-24T06:38:54.330Z,8.10
2022-09-24T06:41:22.745Z,9.50
2022-09-24T06:43:49.848Z,9.10
2022-09-24T06:46:16.986Z,8.80
2022-09-24T06:48:44.084Z,9.17
2022-09-24T06:51:11.187Z,8.37
2022-09-24T06:53:38.271Z,8.30
2022-09-24T06:56:05.501Z,8.07
2022-09-24T06:58:34.167Z,11.40
2022-09-24T07:01:02.099Z,8.83
2022-09-24T07:03:30.259Z,8.23
2022-09-24T07:06:00.379Z,8.00
2022-09-24T07:08:27.750Z,8.97
2022-09-24T07:10:54.845Z,8.80
2022-09-24T07:13:21.941Z,8.90
2022-09-24T07:15:51.036Z,9.47
2022-09-24T07:18:18.389Z,8.73
2022-09-24T07:20:46.003Z,9.23
2022-09-24T07:23:13.094Z,9.07
2022-09-24T07:25:40.329Z,9.93
2022-09-24T07:28:08.609Z,8.87
2022-09-24T07:30:36.235Z,9.73
2022-09-24T07:33:04.946Z,9.30
2022-09-24T07:35:32.324Z,11.93
2022-09-24T07:38:00.584Z,11.83
2022-09-24T07:40:28.563Z,10.00
2022-09-24T07:42:55.912Z,9.60
2022-09-24T07:45:23.300Z,10.27
2022-09-24T07:47:56.746Z,10.07
2022-09-24T07:50:25.258Z,10.00
2022-09-24T07:52:52.569Z,9.83
2022-09-24T07:55:19.689Z,11.70
2022-09-24T07:57:47.254Z,10.03
2022-09-24T08:00:15.108Z,10.53
2022-09-24T08:02:42.205Z,10.60
2022-09-24T08:05:09.891Z,10.50
2022-09-24T08:07:38.348Z,11.20
2022-09-24T08:10:05.910Z,12.10
2022-09-24T08:12:33.013Z,12.23
2022-09-24T08:15:00.131Z,12.27
2022-09-24T08:17:27.221Z,11.20
2022-09-24T08:19:54.331Z,12.30
2022-09-24T08:22:21.414Z,11.80
2022-09-24T08:24:49.853Z,11.73
2022-09-24T08:27:17.570Z,13.47
2022-09-24T08:29:44.780Z,11.33
2022-09-24T08:32:11.877Z,12.13
2022-09-24T08:34:38.982Z,12.70
2022-09-24T08:37:06.082Z,14.30
2022-09-24T08:39:33.194Z,13.50
2022-09-24T08:42:01.963Z,14.10
2022-09-24T08:44:31.117Z,12.77
2022-09-24T08:47:00.557Z,13.40
2022-09-24T08:49:29.077Z,13.63
2022-09-24T08:52:01.853Z,14.43
2022-09-24T08:54:29.751Z,14.87
2022-09-24T08:56:57.173Z,14.50
2022-09-24T08:59:28.056Z,15.80
2022-09-24T09:01:57.590Z,14.90
2022-09-24T09:04:26.899Z,15.20
2022-09-24T09:06:59.646Z,15.80
2022-09-24T09:09:30.715Z,15.93
2022-09-24T09:11:59.693Z,14.80
2022-09-24T09:14:37.040Z,15.00
2022-09-24T09:17:13.203Z,14.93
2022-09-24T09:19:41.448Z,18.97
2022-09-24T09:22:12.657Z,16.40
2022-09-24T09:24:42.726Z,17.07
2022-09-24T09:27:12.309Z,16.43
2022-09-24T09:29:41.480Z,15.00
2022-09-24T09:32:11.060Z,16.80
2022-09-24T09:34:47.645Z,15.40
2022-09-24T09:37:23.319Z,16.67
2022-09-24T09:39:55.809Z,15.43
2022-09-24T09:42:27.639Z,15.80
2022-09-24T09:44:56.373Z,18.20
2022-09-24T09:47:26.558Z,15.33
2022-09-24T09:49:55.891Z,16.20
2022-09-24T09:52:25.243Z,16.00
2022-09-24T09:54:52.345Z,16.23
2022-09-24T09:57:20.705Z,15.37
2022-09-24T09:59:49.066Z,17.20
2022-09-24T10:02:22.834Z,17.13
2022-09-24T10:04:52.698Z,16.43
2022-09-24T10:07:19.798Z,18.00
2022-09-24T10:09:47.017Z,18.27
2022-09-24T10:12:16.158Z,18.80
2022-09-24T10:14:43.596Z,16.43
2022-09-24T10:17:13.627Z,16.80
2022-09-24T10:19:43.173Z,16.57
2022-09-24T10:22:13.964Z,18.60
2022-09-24T10:24:42.720Z,16.90
2022-09-24T10:27:13.500Z,17.23
2022-09-24T10:29:40.984Z,18.83
2022-09-24T10:32:15.480Z,18.63
2022-09-24T10:34:44.026Z,17.37
2022-09-24T10:37:14.095Z,18.37
2022-09-24T10:39:41.588Z,17.30
2022-09-24T10:42:23.558Z,17.70
2022-09-24T10:44:52.818Z,18.13
2022-09-24T10:47:25.467Z,18.07
2022-09-24T10:50:07.914Z,18.63
2022-09-24T10:52:40.967Z,16.67
2022-09-24T10:55:12.962Z,18.20
2022-09-24T10:57:46.397Z,16.17
2022-09-24T11:00:16.553Z,17.23
2022-09-24T11:02:54.159Z,17.73
2022-09-24T11:05:23.712Z,17.07
2022-09-24T11:07:57.960Z,16.23
2022-09-24T11:10:32.960Z,16.13
2022-09-24T11:13:06.393Z,17.27
2022-09-24T11:15:43.863Z,15.43
2022-09-24T11:18:19.415Z,14.43
2022-09-24T11:20:51.521Z,14.73
2022-09-24T11:23:27.230Z,14.70
2022-09-24T11:26:01.234Z,15.63
2022-09-24T11:28:39.591Z,14.93
2022-09-24T11:31:12.041Z,14.07
2022-09-24T11:33:50.039Z,14.23
2022-09-24T11:36:24.572Z,13.57
2022-09-24T11:39:01.256Z,13.83
2022-09-24T11:41:37.303Z,13.10
2022-09-24T11:44:13.577Z,12.63
2022-09-24T11:46:52.112Z,14.07
2022-09-24T11:49:28.848Z,12.83
2022-09-24T11:52:01.014Z,13.47
2022-09-24T11:54:31.570Z,13.53
2022-09-24T11:57:01.470Z,13.40
2022-09-24T11:59:33.727Z,12.90
2022-09-24T12:02:03.789Z,13.23
2022-09-24T12:04:34.014Z,13.30
2022-09-24T12:07:03.453Z,14.10
2022-09-24T12:09:32.405Z,14.00
2022-09-24T12:12:03.010Z,13.27
2022-09-24T12:14:32.320Z,14.17
2022-09-24T12:17:01.830Z,13.03
2022-09-24T12:19:32.225Z,13.10
2022-09-24T12:22:01.446Z,13.73
2022-09-24T12:24:33.641Z,12.70
2022-09-24T12:27:02.082Z,14.10
2022-09-24T12:29:36.434Z,12.93
2022-09-24T12:32:06.292Z,13.43
2022-09-24T12:34:37.806Z,13.77
2022-09-24T12:37:07.104Z,13.10
2022-09-24T12:39:38.274Z,13.07
2022-09-24T12:42:07.437Z,11.60
2022-09-24T12:44:40.161Z,12.70
2022-09-24T12:47:14.582Z,13.13
2022-09-24T12:49:41.765Z,12.60
2022-09-24T12:52:17.436Z,12.00
2022-09-24T12:54:46.460Z,14.53
2022-09-24T12:57:14.665Z,13.10
2022-09-24T12:59:49.322Z,12.90
2022-09-24T13:02:17.691Z,13.70
2022-09-24T13:04:45.747Z,12.30
2022-09-24T13:07:29.296Z,13.20
2022-09-24T13:09:57.745Z,12.70
2022-09-24T13:12:32.106Z,12.53
2022-09-24T13:15:00.531Z,11.83
2022-09-24T13:17:27.794Z,12.53
2022-09-24T13:19:58.834Z,12.00
2022-09-24T13:22:27.535Z,10.87
2022-09-24T13:25:06.131Z,12.40
2022-09-24T13:27:38.458Z,11.23
2022-09-24T13:30:14.280Z,11.17
2022-09-24T13:32:45.134Z,13.30
2022-09-24T13:35:22.084Z,12.10
2022-09-24T13:37:51.388Z,13.13
2022-09-24T13:40:19.869Z,12.90
2022-09-24T13:42:50.195Z,12.13
2022-09-24T13:45:18.798Z,12.07
2022-09-24T13:47:47.522Z,10.20
2022-09-24T13:50:16.858Z,10.10
2022-09-24T13:52:46.235Z,11.83
2022-09-24T13:55:18.610Z,10.90
2022-09-24T13:57:46.286Z,10.77
2022-09-24T14:00:15.845Z,10.40
2022-09-24T14:02:44.347Z,10.00
2022-09-24T14:05:16.662Z,9.73
2022-09-24T14:07:43.863Z,9.73
2022-09-24T14:10:13.807Z,8.33
2022-09-24T14:12:41.052Z,9.50
2022-09-24T14:15:13.737Z,9.17
2022-09-24T14:17:42.189Z,8.20
2022-09-24T14:20:13.548Z,9.33
2022-09-24T14:22:42.047Z,9.00
2022-09-24T14:25:10.656Z,9.40
2022-09-24T14:27:38.501Z,9.20
2022-09-24T14:30:06.678Z,9.23
2022-09-24T14:32:35.293Z,9.90
2022-09-24T14:35:05.907Z,10.80
2022-09-24T14:37:34.647Z,10.30
2022-09-24T14:40:02.991Z,10.20
2022-09-24T14:42:32.344Z,9.23
2022-09-24T14:45:00.156Z,9.33
2022-09-24T14:47:28.110Z,9.73
2022-09-24T14:49:55.519Z,10.10
2022-09-24T14:52:28.335Z,10.83
2022-09-24T14:55:02.284Z,11.33
2022-09-24T14:57:36.364Z,10.80
2022-09-24T15:00:03.523Z,11.83
2022-09-24T15:02:31.450Z,10.90
2022-09-24T15:05:05.510Z,10.17
2022-09-24T15:07:35.552Z,10.67
2022-09-24T15:10:04.161Z,11.10
2022-09-24T15:12:32.366Z,11.70
2022-09-24T15:15:00.346Z,11.53
2022-09-24T15:17:30.518Z,11.60
2022-09-24T15:19:57.637Z,11.50
2022-09-24T15:22:24.789Z,11.80
2022-09-24T15:24:57.424Z,10.90
2022-09-24T15:27:28.210Z,11.57
2022-09-24T15:29:55.403Z,12.03
2022-09-24T15:32:22.473Z,12.60
2022-09-24T15:34:49.637Z,11.93
2022-09-24T15:37:18.770Z,10.93
2022-09-24T15:39:45.921Z,11.53
2022-09-24T15:42:14.366Z,12.90
2022-09-24T15:44:43.315Z,10.30
2022-09-24T15:47:10.407Z,11.40
2022-09-24T15:49:37.555Z,11.67
2022-09-24T15:52:07.185Z,11.20
2022-09-24T15:54:34.293Z,12.50
2022-09-24T15:57:01.431Z,13.17
2022-09-24T15:59:29.898Z,11.47
2022-09-24T16:01:59.289Z,12.57
2022-09-24T16:04:26.450Z,12.17
2022-09-24T16:06:53.574Z,11.50
2022-09-24T16:09:20.688Z,10.90
2022-09-24T16:11:47.809Z,10.90
2022-09-24T16:14:14.916Z,12.60
2022-09-24T16:16:43.349Z,11.43
2022-09-24T16:19:10.516Z,10.97
2022-09-24T16:21:37.637Z,10.30
2022-09-24T16:24:04.923Z,11.20
2022-09-24T16:26:32.038Z,11.73
2022-09-24T16:28:59.145Z,10.77
2022-09-24T16:31:26.331Z,11.93
2022-09-24T16:33:54.871Z,11.93
2022-09-24T16:36:22.002Z,9.80
2022-09-24T16:38:49.159Z,10.63
2022-09-24T16:41:16.311Z,10.73
2022-09-24T16:43:43.410Z,10.80
2022-09-24T16:46:10.804Z,10.10
2022-09-24T16:48:37.981Z,10.83
2022-09-24T16:51:07.604Z,10.10
2022-09-24T16:53:35.204Z,10.40
2022-09-24T16:56:03.100Z,12.00
2022-09-24T16:58:31.209Z,12.60
2022-09-24T17:00:58.278Z,12.30
2022-09-24T17:03:25.438Z,12.60
2022-09-24T17:05:52.527Z,12.97
2022-09-24T17:08:20.977Z,11.93
2022-09-24T17:10:53.817Z,12.70
2022-09-24T17:13:23.040Z,13.80
2022-09-24T17:15:50.206Z,12.23
2022-09-24T17:18:17.302Z,13.90
2022-09-24T17:20:44.406Z,12.70
2022-09-24T17:23:11.505Z,14.07
2022-09-24T17:25:39.944Z,13.20
2022-09-24T17:28:07.063Z,14.17
2022-09-24T17:30:34.522Z,13.00
2022-09-24T17:33:01.639Z,13.93
2022-09-24T17:35:28.720Z,14.10
2022-09-24T17:37:55.833Z,14.87
2022-09-24T17:40:24.272Z,14.67
2022-09-24T17:42:52.932Z,14.37
2022-09-24T17:45:20.039Z,14.50
2022-09-24T17:47:47.131Z,15.37
2022-09-24T17:50:14.310Z,15.83
2022-09-24T17:52:41.399Z,16.33
2022-09-24T17:55:08.688Z,16.73
2022-09-24T17:57:35.777Z,17.20
2022-09-24T18:00:04.647Z,18.47
2022-09-24T18:02:38.841Z,17.10
2022-09-24T18:05:06.427Z,17.43
2022-09-24T18:07:33.546Z,16.87
2022-09-24T18:10:00.617Z,19.10
2022-09-24T18:12:27.711Z,16.70
2022-09-24T18:14:54.776Z,19.60
2022-09-24T18:17:23.205Z,18.00
2022-09-24T18:19:50.296Z,18.60
2022-09-24T18:22:17.398Z,16.83
2022-09-24T18:24:44.471Z,16.30
2022-09-24T18:27:11.557Z,17.53
2022-09-24T18:29:38.658Z,18.20
2022-09-24T18:32:05.819Z,18.33
2022-09-24T18:34:34.244Z,18.03
2022-09-24T18:37:01.348Z,17.50
2022-09-24T18:39:28.416Z,15.00
2022-09-24T18:41:55.514Z,15.30
2022-09-24T18:44:22.633Z,16.23
2022-09-24T18:46:49.842Z,13.60
2022-09-24T18:49:17.151Z,13.80
2022-09-24T18:51:45.593Z,14.03
2022-09-24T18:54:13.536Z,13.30
2022-09-24T18:56:40.811Z,13.43
2022-09-24T18:59:12.208Z,12.87
2022-09-24T19:01:39.998Z,12.93
2022-09-24T19:04:08.057Z,12.10
2022-09-24T19:06:35.735Z,13.63
2022-09-24T19:09:04.545Z,13.00
2022-09-24T19:11:31.838Z,12.30
2022-09-24T19:13:59.168Z,12.97
2022-09-24T19:16:26.274Z,13.40
2022-09-24T19:18:54.284Z,11.60
2022-09-24T19:21:22.189Z,12.83
2022-09-24T19:23:50.320Z,12.63
2022-09-24T19:26:20.017Z,12.27
2022-09-24T19:28:47.721Z,13.63
2022-09-24T19:31:15.311Z,12.57
2022-09-24T19:33:42.546Z,13.67
2022-09-24T19:36:09.760Z,12.50
2022-09-24T19:38:37.225Z,12.23
2022-09-24T19:41:05.067Z,13.00
2022-09-24T19:43:34.017Z,13.23
2022-09-24T19:46:01.946Z,14.57
2022-09-24T19:48:30.447Z,12.63
2022-09-24T19:50:59.758Z,13.00
2022-09-24T19:53:27.130Z,14.27
2022-09-24T19:55:54.193Z,13.90
2022-09-24T19:58:21.307Z,14.37
2022-09-24T20:00:49.786Z,14.80
2022-09-24T20:03:16.983Z,14.30
2022-09-24T20:05:44.267Z,14.50
2022-09-24T20:08:12.274Z,13.93
2022-09-24T20:10:40.057Z,14.67
2022-09-24T20:13:07.239Z,14.13
2022-09-24T20:15:34.379Z,15.37
2022-09-24T20:18:02.904Z,16.00
2022-09-24T20:20:29.992Z,16.27
2022-09-24T20:22:57.120Z,14.80
2022-09-24T20:25:24.258Z,14.90
2022-09-24T20:27:51.367Z,16.83
2022-09-24T20:30:18.827Z,15.00
2022-09-24T20:32:45.874Z,15.13
2022-09-24T20:35:14.347Z,15.63
2022-09-24T20:37:41.494Z,14.53
2022-09-24T20:40:09.954Z,17.27
2022-09-24T20:42:37.638Z,17.30
2022-09-24T20:45:06.382Z,16.00
2022-09-24T20:47:33.660Z,15.40
2022-09-24T20:50:00.744Z,16.03
2022-09-24T20:52:29.204Z,17.90
2022-09-24T20:54:56.298Z,17.90
2022-09-24T20:57:23.400Z,17.40
2022-09-24T20:59:50.485Z,18.00
2022-09-24T21:02:17.701Z,19.87
2022-09-24T21:04:44.859Z,17.87
2022-09-24T21:07:11.959Z,19.30
2022-09-24T21:09:40.455Z,19.87
2022-09-24T21:12:07.600Z,19.57
2022-09-24T21:14:34.954Z,19.33
2022-09-24T21:17:02.092Z,22.57
2022-09-24T21:19:29.212Z,21.90
2022-09-24T21:21:56.302Z,20.13
2022-09-24T21:24:27.682Z,20.40
2022-09-24T21:26:59.112Z,21.90
2022-09-24T21:29:26.297Z,21.10
2022-09-24T21:31:53.392Z,21.50
2022-09-24T21:34:20.531Z,22.03
2022-09-24T21:36:47.838Z,21.37
2022-09-24T21:39:16.021Z,21.60
2022-09-24T21:41:43.701Z,18.57
2022-09-24T21:44:13.408Z,21.03
2022-09-24T21:46:40.667Z,18.97
2022-09-24T21:49:07.893Z,19.30
2022-09-24T21:51:35.146Z,19.97
2022-09-24T21:54:03.925Z,18.73
2022-09-24T21:56:32.146Z,18.20
2022-09-24T21:58:59.473Z,19.97
2022-09-24T22:01:29.019Z,20.30
2022-09-24T22:03:57.041Z,20.70
2022-09-24T22:06:24.526Z,22.20
2022-09-24T22:08:51.730Z,21.17
2022-09-24T22:11:18.803Z,21.10
2022-09-24T22:13:45.950Z,20.70
2022-09-24T22:16:13.080Z,22.23
2022-09-24T22:18:41.493Z,20.27
2022-09-24T22:21:09.651Z,19.60
2022-09-24T22:23:36.876Z,20.17
2022-09-24T22:26:04.162Z,20.97
2022-09-24T22:28:31.375Z,21.30
2022-09-24T22:30:59.309Z,21.40
2022-09-24T22:33:28.906Z,20.97
2022-09-24T22:35:57.364Z,21.20
2022-09-24T22:38:24.473Z,22.10
2022-09-24T22:40:51.615Z,21.40
2022-09-24T22:43:18.805Z,22.10
2022-09-24T22:45:45.923Z,22.13
2022-09-24T22:48:13.094Z,20.57
2022-09-24T22:50:40.257Z,18.87
2022-09-24T22:53:08.700Z,20.97
2022-09-24T22:55:35.813Z,22.33
2022-09-24T22:58:02.921Z,21.37
2022-09-24T23:00:30.049Z,20.10
2022-09-24T23:02:57.169Z,22.40
2022-09-24T23:05:24.319Z,20.47
2022-09-24T23:07:51.467Z,20.90
2022-09-24T23:10:19.912Z,20.73
2022-09-24T23:12:48.075Z,21.90
2022-09-24T23:15:15.305Z,20.97
2022-09-24T23:17:42.416Z,20.87
2022-09-24T23:20:09.848Z,21.73
2022-09-24T23:22:36.973Z,20.53
2022-09-24T23:25:04.170Z,20.03
2022-09-24T23:27:32.612Z,20.30
2022-09-24T23:29:59.694Z,19.60
2022-09-24T23:32:26.785Z,22.10
2022-09-24T23:34:53.972Z,18.67
2022-09-24T23:37:21.079Z,21.13
2022-09-24T23:39:48.212Z,21.47
2022-09-24T23:42:15.318Z,18.20
2022-09-24T23:44:43.795Z,18.43
2022-09-24T23:47:10.863Z,18.50
2022-09-24T23:49:37.978Z,18.50
2022-09-24T23:52:05.105Z,20.00
2022-09-24T23:54:32.209Z,18.70
2022-09-24T23:56:59.295Z,18.77
2022-09-24T23:59:26.391Z,18.00
